createdAt,value
2023-01-23T00:03:37.093Z,23.10
2023-01-23T00:08:42.899Z,23.00
2023-01-23T00:13:47.309Z,22.90
2023-01-23T00:18:52.784Z,22.80
2023-01-23T00:23:59.154Z,22.70
2023-01-23T00:29:05.051Z,22.60
2023-01-23T00:34:12.965Z,22.60
2023-01-23T00:39:21.423Z,22.50
2023-01-23T00:44:25.643Z,22.40
2023-01-23T00:49:30.204Z,22.40
2023-01-23T00:54:36.242Z,22.40
2023-01-23T00:59:40.119Z,22.30
2023-01-23T01:04:44.225Z,22.20
2023-01-23T01:09:48.345Z,22.20
2023-01-23T01:14:53.921Z,22.20
2023-01-23T01:19:58.043Z,22.10
2023-01-23T01:25:02.182Z,22.00
2023-01-23T01:30:07.204Z,22.00
2023-01-23T01:35:11.781Z,22.00
2023-01-23T01:40:19.758Z,21.90
2023-01-23T01:46:01.640Z,21.80
2023-01-23T01:51:15.015Z,22.00
2023-01-23T01:56:20.640Z,22.30
2023-01-23T02:01:25.261Z,22.60
2023-01-23T02:06:29.404Z,22.80
2023-01-23T02:11:33.939Z,23.00
2023-01-23T02:16:41.397Z,23.10
2023-01-23T02:21:50.280Z,23.10
2023-01-23T02:26:55.861Z,23.20
2023-01-23T02:32:01.574Z,23.20
2023-01-23T02:37:07.950Z,23.30
2023-01-23T02:42:12.865Z,23.30
2023-01-23T02:47:22.021Z,23.40
2023-01-23T02:52:26.267Z,23.40
2023-01-23T02:57:30.279Z,23.50
2023-01-23T03:02:34.443Z,23.60
2023-01-23T03:07:38.561Z,23.70
2023-01-23T03:12:44.020Z,23.70
2023-01-23T03:17:48.893Z,23.70
2023-01-23T03:22:54.148Z,23.80
2023-01-23T03:27:58.282Z,23.80
2023-01-23T03:33:03.020Z,23.80
2023-01-23T03:38:07.460Z,23.90
2023-01-23T03:43:11.701Z,23.90
2023-01-23T03:48:20.747Z,23.90
2023-01-23T03:53:25.700Z,23.80
2023-01-23T03:58:31.160Z,23.60
2023-01-23T04:03:35.894Z,23.40
2023-01-23T04:08:40.860Z,23.20
2023-01-23T04:13:47.159Z,23.10
2023-01-23T04:18:51.723Z,23.00
2023-01-23T04:23:55.842Z,23.00
2023-01-23T04:28:59.979Z,22.90
2023-01-23T04:34:04.820Z,22.90
2023-01-23T04:39:09.160Z,22.80
2023-01-23T04:44:23.227Z,22.70
2023-01-23T04:49:50.239Z,22.60
2023-01-23T04:54:55.320Z,22.60
2023-01-23T05:00:00.548Z,22.50
2023-01-23T05:05:06.825Z,22.40
2023-01-23T05:10:11.840Z,22.30
2023-01-23T05:15:17.679Z,22.30
2023-01-23T05:20:24.048Z,22.20
2023-01-23T05:25:29.369Z,22.20
2023-01-23T05:30:34.670Z,22.10
2023-01-23T05:35:52.162Z,22.00
2023-01-23T05:40:56.414Z,22.00
2023-01-23T05:46:26.452Z,22.00
2023-01-23T05:51:34.313Z,22.40
2023-01-23T05:56:38.782Z,22.70
2023-01-23T06:02:01.420Z,22.80
2023-01-23T06:07:34.121Z,22.90
2023-01-23T06:12:42.443Z,23.10
2023-01-23T06:17:46.658Z,23.20
2023-01-23T06:22:51.352Z,23.30
2023-01-23T06:27:55.463Z,23.20
2023-01-23T06:33:00.621Z,23.30
2023-01-23T06:38:10.779Z,23.40
2023-01-23T06:43:15.741Z,23.50
2023-01-23T06:48:19.982Z,23.60
2023-01-23T06:53:24.616Z,23.60
2023-01-23T06:58:29.500Z,23.60
2023-01-23T07:03:33.725Z,23.70
2023-01-23T07:08:37.942Z,23.70
2023-01-23T07:13:42.283Z,23.60
2023-01-23T07:18:47.041Z,23.60
2023-01-23T07:23:51.486Z,23.50
2023-01-23T07:28:55.638Z,23.50
2023-01-23T07:33:59.481Z,23.50
2023-01-23T07:39:03.588Z,23.50
2023-01-23T07:44:07.399Z,23.40
2023-01-23T07:49:11.754Z,23.30
2023-01-23T07:54:15.695Z,23.20
2023-01-23T07:59:20.014Z,23.00
2023-01-23T08:04:23.955Z,22.90
2023-01-23T08:09:27.989Z,22.90
2023-01-23T08:14:32.324Z,22.70
2023-01-23T08:19:36.565Z,22.60
2023-01-23T08:24:40.455Z,22.60
2023-01-23T08:29:44.742Z,22.50
2023-01-23T08:34:49.275Z,22.40
2023-01-23T08:39:53.431Z,22.40
2023-01-23T08:44:57.157Z,22.30
2023-01-23T08:50:01.164Z,22.20
2023-01-23T08:55:05.608Z,22.20
2023-01-23T09:00:10.969Z,22.10
2023-01-23T09:05:15.300Z,22.20
2023-01-23T09:10:19.691Z,22.00
2023-01-23T09:15:24.085Z,22.00
2023-01-23T09:20:29.668Z,22.00
2023-01-23T09:25:33.692Z,21.80
2023-01-23T09:30:37.741Z,21.80
2023-01-23T09:35:42.081Z,21.80
2023-01-23T09:40:52.371Z,22.10
2023-01-23T09:46:28.409Z,22.40
2023-01-23T09:51:39.194Z,22.70
2023-01-23T09:56:46.911Z,23.00
2023-01-23T10:01:56.894Z,23.00
2023-01-23T10:07:23.006Z,23.10
2023-01-23T10:12:40.153Z,23.20
2023-01-23T10:18:04.014Z,23.30
2023-01-23T10:23:40.293Z,23.30
2023-01-23T10:28:44.412Z,23.30
2023-01-23T10:33:56.766Z,23.30
2023-01-23T10:39:10.732Z,23.40
2023-01-23T10:44:19.815Z,23.40
2023-01-23T10:49:33.721Z,23.50
2023-01-23T10:54:47.239Z,23.60
2023-01-23T11:00:36.137Z,23.60
2023-01-23T11:05:52.627Z,23.50
2023-01-23T11:11:16.079Z,23.40
2023-01-23T11:16:22.626Z,23.40
2023-01-23T11:21:34.405Z,23.40
2023-01-23T11:26:39.261Z,23.50
2023-01-23T11:31:43.915Z,23.60
2023-01-23T11:37:03.151Z,23.70
2023-01-23T11:42:11.821Z,23.70
2023-01-23T11:47:39.785Z,23.70
2023-01-23T11:53:07.805Z,23.70
2023-01-23T11:58:50.663Z,23.60
2023-01-23T12:04:26.680Z,23.50
2023-01-23T12:10:03.054Z,23.40
2023-01-23T12:15:27.121Z,23.20
2023-01-23T12:20:46.139Z,23.00
2023-01-23T12:26:08.152Z,23.10
2023-01-23T12:31:41.409Z,23.10
2023-01-23T12:37:08.452Z,22.90
2023-01-23T12:42:22.561Z,22.80
2023-01-23T12:47:45.023Z,22.70
2023-01-23T12:53:21.663Z,22.60
2023-01-23T12:58:28.581Z,22.40
2023-01-23T13:03:55.135Z,22.40
2023-01-23T13:09:16.802Z,22.30
2023-01-23T13:15:06.875Z,22.30
2023-01-23T13:20:47.350Z,22.10
2023-01-23T13:26:12.965Z,22.20
2023-01-23T13:31:45.586Z,22.20
2023-01-23T13:36:51.783Z,22.00
2023-01-23T13:42:14.663Z,22.00
2023-01-23T14:22:28.700Z,22.40
2023-01-23T14:28:17.883Z,22.50
2023-01-23T14:33:22.620Z,22.60
2023-01-23T14:38:33.799Z,22.70
2023-01-23T14:43:38.862Z,22.80
2023-01-23T14:48:45.462Z,22.80
2023-01-23T14:54:01.397Z,22.90
2023-01-23T14:59:21.985Z,22.90
2023-01-23T15:04:29.566Z,23.00
2023-01-23T15:09:43.142Z,23.00
2023-01-23T15:14:47.281Z,23.00
2023-01-23T15:19:55.832Z,22.90
2023-01-23T15:25:28.810Z,22.90
2023-01-23T15:30:48.808Z,23.00
2023-01-23T15:35:53.449Z,23.00
2023-01-23T15:40:59.645Z,23.10
2023-01-23T15:46:04.202Z,23.10
2023-01-23T15:51:11.788Z,23.20
2023-01-23T15:56:28.487Z,23.20
2023-01-23T16:01:34.406Z,23.30
2023-01-23T16:06:39.749Z,23.40
2023-01-23T16:11:44.601Z,23.40
2023-01-23T16:16:49.061Z,23.30
2023-01-23T16:22:04.336Z,23.20
2023-01-23T16:27:18.585Z,23.10
2023-01-23T16:32:23.374Z,23.30
2023-01-23T16:37:27.586Z,23.40
2023-01-23T16:42:32.282Z,23.50
2023-01-23T16:47:36.863Z,23.50
2023-01-23T16:52:44.265Z,23.50
2023-01-23T16:57:55.467Z,23.50
2023-01-23T17:03:04.818Z,23.40
2023-01-23T17:08:21.165Z,23.40
2023-01-23T17:13:27.049Z,23.30
2023-01-23T17:18:36.968Z,23.10
2023-01-23T17:23:41.435Z,23.10
2023-01-23T17:28:47.295Z,23.00
2023-01-23T17:33:56.840Z,23.00
2023-01-23T17:39:01.789Z,22.90
2023-01-23T17:44:06.244Z,22.80
2023-01-23T17:49:33.472Z,22.70
2023-01-23T17:54:39.555Z,22.70
2023-01-23T17:59:46.247Z,22.80
2023-01-23T18:05:00.753Z,22.60
2023-01-23T18:10:08.194Z,22.60
2023-01-23T18:15:30.029Z,22.60
2023-01-23T18:20:41.386Z,22.60
2023-01-23T18:25:47.748Z,22.70
2023-01-23T18:31:01.442Z,22.60
2023-01-23T18:36:23.406Z,22.50
2023-01-23T18:41:30.407Z,22.30
2023-01-23T18:46:36.564Z,22.30
2023-01-23T18:52:13.723Z,22.20
2023-01-23T18:57:44.800Z,22.20
2023-01-23T19:02:57.828Z,22.10
2023-01-23T19:08:03.926Z,22.00
2023-01-23T19:13:30.566Z,21.90
2023-01-23T19:18:41.910Z,22.00
2023-01-23T19:23:48.945Z,21.90
2023-01-23T19:28:54.870Z,21.90
2023-01-23T19:34:05.189Z,21.80
2023-01-23T19:39:12.153Z,21.90
2023-01-23T19:44:20.838Z,21.70
2023-01-23T19:49:28.442Z,21.70
2023-01-23T19:54:34.590Z,21.70
2023-01-23T19:59:40.413Z,21.70
2023-01-23T20:04:47.751Z,21.70
2023-01-23T20:09:54.311Z,21.70
2023-01-23T20:14:59.916Z,21.70
2023-01-23T20:20:12.427Z,21.60
2023-01-23T20:25:19.258Z,21.50
2023-01-23T20:30:27.115Z,21.60
2023-01-23T20:35:33.179Z,22.00
2023-01-23T20:40:40.026Z,22.10
2023-01-23T20:45:50.513Z,22.30
2023-01-23T20:51:00.008Z,22.60
2023-01-23T20:56:11.577Z,22.70
2023-01-23T21:01:21.535Z,22.80
2023-01-23T21:06:27.501Z,22.80
2023-01-23T21:11:33.308Z,22.80
2023-01-23T21:16:39.456Z,22.70
2023-01-23T21:21:43.837Z,22.70
2023-01-23T21:26:49.496Z,22.60
2023-01-23T21:31:54.375Z,22.70
2023-01-23T21:36:59.372Z,22.70
2023-01-23T21:42:04.006Z,22.90
2023-01-23T21:47:07.942Z,23.00
2023-01-23T21:52:12.112Z,22.90
2023-01-23T21:57:16.521Z,23.00
2023-01-23T22:02:20.975Z,22.90
2023-01-23T22:07:25.213Z,23.10
2023-01-23T22:12:29.222Z,23.10
2023-01-23T22:17:34.441Z,23.20
2023-01-23T22:22:38.629Z,23.20
2023-01-23T22:27:42.551Z,23.30
2023-01-23T22:32:46.487Z,23.30
2023-01-23T22:37:50.521Z,23.20
2023-01-23T22:42:54.555Z,23.30
2023-01-23T22:47:58.809Z,23.20
2023-01-23T22:53:02.919Z,23.20
2023-01-23T22:58:07.267Z,23.10
2023-01-23T23:03:11.286Z,23.20
2023-01-23T23:08:15.540Z,23.10
2023-01-23T23:13:20.598Z,23.00
2023-01-23T23:18:24.830Z,23.00
2023-01-23T23:23:29.433Z,22.80
2023-01-23T23:28:34.544Z,22.70
2023-01-23T23:33:38.775Z,22.50
2023-01-23T23:38:42.718Z,22.50
2023-01-23T23:43:46.915Z,22.40
2023-01-23T23:48:50.832Z,22.40
2023-01-23T23:53:55.919Z,22.30
2023-01-23T23:58:59.873Z,22.20
